Time;durP1;ratioP1;P1;durP2;ratioP2;P2;SDS_P1;SDS_P2;PMS_P1;PMS_P2;Temp;Humidity;BMP_temperature;BMP_pressure;BME280_temperature;BME280_humidity;BME280_pressure;Samples;Min_cycle;Max_cycle;Signal;HPM_P1;HPM_P2
2024/02/08 00:00:31;;;;;;;1.63;1.10;;;;;;;3.55;67.61;98610.72;10435330;28;20149;-60
2024/02/08 00:05:34;;;;;;;1.77;1.30;;;;;;;3.51;67.80;98613.53;10435321;28;20053;-60
2024/02/08 00:10:36;;;;;;;2.17;1.40;;;;;;;3.60;67.68;98613.06;10434767;28;20114;-60
2024/02/08 00:15:39;;;;;;;1.80;1.30;;;;;;;3.62;67.90;98611.22;10435033;28;20041;-60
2024/02/08 00:20:41;;;;;;;1.88;1.15;;;;;;;3.67;67.61;98604.06;10434342;28;20056;-60
2024/02/08 00:25:45;;;;;;;2.00;1.30;;;;;;;3.57;67.60;98610.63;10434621;28;20047;-60
2024/02/08 00:30:48;;;;;;;2.55;1.30;;;;;;;3.73;67.80;98611.47;10434384;28;20132;-60
2024/02/08 00:35:50;;;;;;;2.95;1.60;;;;;;;3.89;67.53;98607.19;10433745;28;20743;-60
2024/02/08 00:40:52;;;;;;;2.25;1.25;;;;;;;3.89;67.40;98609.78;10433162;28;20049;-60
2024/02/08 00:45:54;;;;;;;1.98;1.38;;;;;;;3.88;67.18;98608.94;10432613;28;20484;-60
2024/02/08 00:50:56;;;;;;;1.90;1.20;;;;;;;3.93;67.15;98610.44;10432691;28;20076;-61
2024/02/08 00:55:58;;;;;;;1.92;1.40;;;;;;;3.81;67.33;98594.66;10432745;28;20140;-61
2024/02/08 01:01:01;;;;;;;2.78;1.25;;;;;;;3.80;67.11;98590.38;10433498;28;20049;-60
2024/02/08 01:06:03;;;;;;;1.77;1.23;;;;;;;3.94;67.37;98589.69;10433051;28;20049;-60
2024/02/08 01:11:05;;;;;;;2.72;1.50;;;;;;;4.09;67.11;98583.66;10431230;28;20072;-60
2024/02/08 01:16:11;;;;;;;2.10;1.40;;;;;;;4.04;66.85;98597.78;10433011;28;20045;-60
2024/02/08 01:21:13;;;;;;;2.90;1.58;;;;;;;4.07;66.88;98602.78;10415552;28;20099;-60
2024/02/08 01:26:15;;;;;;;2.65;1.30;;;;;;;4.01;66.85;98610.84;10433043;28;20059;-60
2024/02/08 01:31:17;;;;;;;2.35;1.40;;;;;;;4.08;66.90;98610.47;10432149;28;20048;-60
2024/02/08 01:36:19;;;;;;;2.45;1.40;;;;;;;3.99;66.93;98613.53;10432476;28;20045;-60
2024/02/08 01:41:21;;;;;;;2.40;1.60;;;;;;;3.94;67.25;98602.63;10432448;28;20526;-60
2024/02/08 01:46:23;;;;;;;2.35;1.40;;;;;;;3.88;67.12;98602.09;10425585;28;20052;-61
2024/02/08 01:51:26;;;;;;;1.65;1.13;;;;;;;3.96;67.54;98593.03;10430920;28;20068;-60
2024/02/08 01:56:30;;;;;;;2.65;1.60;;;;;;;3.90;67.39;98600.28;10429183;28;20049;-60
2024/02/08 02:01:32;;;;;;;3.10;1.60;;;;;;;3.80;67.45;98594.75;10431159;28;20076;-60
2024/02/08 02:06:35;;;;;;;2.58;1.48;;;;;;;3.93;67.20;98597.50;10434019;28;20041;-60
2024/02/08 02:11:49;;;;;;;2.33;1.55;;;;;;;3.95;66.91;98593.94;10436148;28;20053;-60
2024/02/08 02:17:03;;;;;;;3.33;1.70;;;;;;;3.80;67.28;98589.56;10439227;28;20511;-60
2024/02/08 02:22:07;;;;;;;3.92;1.88;;;;;;;3.82;67.49;98585.16;10437721;28;20041;-61
2024/02/08 02:27:11;;;;;;;2.75;1.45;;;;;;;3.90;67.18;98593.34;10438459;28;20045;-60
2024/02/08 02:32:15;;;;;;;2.50;1.52;;;;;;;3.93;67.02;98595.75;10438978;28;20056;-60
2024/02/08 02:37:18;;;;;;;2.00;1.35;;;;;;;4.01;67.20;98591.00;10438505;28;20044;-60
2024/02/08 02:42:21;;;;;;;2.00;1.30;;;;;;;4.19;66.94;98592.59;10437927;28;20045;-60
2024/02/08 02:47:25;;;;;;;1.85;1.23;;;;;;;4.01;66.99;98582.41;10438420;28;20381;-60
2024/02/08 02:52:28;;;;;;;1.65;1.10;;;;;;;3.86;66.98;98587.50;10436400;28;20437;-61
2024/02/08 02:57:30;;;;;;;1.35;0.98;;;;;;;3.76;67.14;98575.94;10437260;28;20048;-60
2024/02/08 03:02:32;;;;;;;1.40;1.10;;;;;;;3.84;67.33;98575.59;10437218;28;20052;-60
2024/02/08 03:07:35;;;;;;;1.35;0.90;;;;;;;4.02;67.05;98572.00;10437203;28;20056;-61
2024/02/08 03:12:38;;;;;;;1.08;0.93;;;;;;;4.18;67.00;98566.81;10437481;28;20076;-60
2024/02/08 03:17:40;;;;;;;1.25;0.90;;;;;;;4.09;66.50;98557.78;10436165;28;20041;-60
2024/02/08 03:22:45;;;;;;;1.40;1.00;;;;;;;3.95;66.95;98562.88;10435876;28;20128;-60
2024/02/08 03:27:51;;;;;;;0.90;0.73;;;;;;;3.85;67.02;98561.72;10436861;28;20052;-60
2024/02/08 03:32:53;;;;;;;1.48;1.00;;;;;;;3.88;67.31;98561.56;10433726;28;20520;-60
2024/02/08 03:38:02;;;;;;;0.73;0.73;;;;;;;3.93;67.09;98559.56;10435568;28;20052;-60
2024/02/08 03:43:04;;;;;;;0.70;0.70;;;;;;;3.99;67.13;98569.56;10435946;28;20091;-60
2024/02/08 03:48:10;;;;;;;0.93;0.90;;;;;;;4.08;66.89;98553.56;10434531;28;20115;-59
2024/02/08 03:53:13;;;;;;;2.17;1.42;;;;;;;4.08;67.13;98558.72;10418283;28;20604;-60
2024/02/08 03:58:17;;;;;;;1.50;1.10;;;;;;;4.06;66.88;98555.38;10434123;28;20144;-60
2024/02/08 04:09:06;;;;;;;1.15;1.02;;;;;;;3.74;67.44;98551.13;10432271;28;20045;-60
2024/02/08 04:57:10;;;;;;;5.22;1.70;;;;;;;4.04;66.55;98535.69;10433615;28;20124;-60
2024/02/08 05:02:13;;;;;;;3.33;1.58;;;;;;;3.97;67.04;98542.94;10431672;28;20484;-61
2024/02/08 05:07:16;;;;;;;3.15;1.67;;;;;;;3.99;67.15;98530.75;10433060;28;20065;-60
2024/02/08 05:12:20;;;;;;;2.05;1.23;;;;;;;3.98;66.77;98529.09;10431434;28;20044;-61
2024/02/08 05:17:22;;;;;;;1.38;1.00;;;;;;;4.10;66.56;98530.19;10431703;28;20056;-61
2024/02/08 05:22:24;;;;;;;1.80;1.27;;;;;;;4.12;66.54;98534.34;10432953;28;20041;-60
2024/02/08 05:27:26;;;;;;;1.67;1.20;;;;;;;4.01;66.61;98534.09;10432772;28;20493;-60
2024/02/08 05:32:28;;;;;;;2.55;1.42;;;;;;;3.99;66.83;98528.19;10432411;28;20041;-60
2024/02/08 05:37:31;;;;;;;2.63;1.58;;;;;;;4.10;66.63;98553.47;10410195;28;20605;-60
2024/02/08 05:42:36;;;;;;;2.80;1.38;;;;;;;4.05;66.78;98545.13;10437666;28;20408;-61
2024/02/08 05:47:38;;;;;;;2.75;1.70;;;;;;;4.04;66.98;98535.69;10440656;28;20048;-60
2024/02/08 05:52:42;;;;;;;2.58;1.58;;;;;;;4.13;66.65;98530.03;10439637;28;20049;-60
2024/02/08 05:57:45;;;;;;;2.15;1.40;;;;;;;4.14;66.80;98524.75;10440105;28;20053;-60
2024/02/08 06:02:47;;;;;;;2.80;1.52;;;;;;;4.00;66.64;98511.75;10437294;28;20045;-61
2024/02/08 06:07:56;;;;;;;2.67;1.67;;;;;;;3.99;67.11;98522.16;10435898;28;20098;-60
2024/02/08 06:12:59;;;;;;;3.00;1.83;;;;;;;4.09;66.93;98508.63;10436066;28;20067;-60
2024/02/08 06:18:05;;;;;;;2.72;1.65;;;;;;;4.31;66.66;98506.50;10438726;28;20160;-60
2024/02/08 06:23:16;;;;;;;3.13;1.77;;;;;;;4.06;66.87;98508.81;10438283;28;20039;-60
2024/02/08 06:28:24;;;;;;;3.15;1.85;;;;;;;4.10;67.26;98512.06;10439098;28;20133;-60
2024/02/08 06:33:31;;;;;;;4.15;1.85;;;;;;;4.08;67.15;98509.56;10438430;28;20041;-60
2024/02/08 06:38:41;;;;;;;3.13;1.90;;;;;;;4.14;67.09;98513.56;10436627;28;20086;-61
2024/02/08 07:37:18;;;;;;;4.70;2.73;;;;;;;4.39;66.51;98490.56;10430674;28;20497;-61
2024/02/08 07:42:29;;;;;;;4.93;2.70;;;;;;;4.53;66.63;98478.47;10427359;28;20635;-61
2024/02/08 07:47:33;;;;;;;4.43;2.35;;;;;;;4.57;66.70;98468.78;10416439;28;20052;-61
2024/02/08 07:52:45;;;;;;;4.60;2.60;;;;;;;4.57;66.31;98473.94;10413610;28;20628;-61
2024/02/08 07:58:32;;;;;;;5.80;2.40;;;;;;;4.68;66.10;98471.56;10433127;28;20052;-61
2024/02/08 08:03:16;;;;;;;4.63;2.42;;;;;;;4.83;65.84;98477.59;10426466;28;20044;-61
2024/02/08 08:08:24;;;;;;;4.68;2.20;;;;;;;4.64;66.02;98476.09;10434851;28;20049;-61
2024/02/08 08:14:06;;;;;;;4.15;2.05;;;;;;;4.66;66.36;98478.56;10432566;28;20148;-61
2024/02/08 08:19:09;;;;;;;4.25;2.17;;;;;;;4.60;66.37;98479.78;10432222;28;20053;-60
2024/02/08 08:24:25;;;;;;;5.60;2.75;;;;;;;4.56;66.21;98485.22;10434417;28;20049;-60
2024/02/08 08:29:27;;;;;;;3.63;1.95;;;;;;;4.51;66.71;98475.16;10434729;28;20048;-60
2024/02/08 08:45:16;;;;;;;4.07;2.40;;;;;;;4.76;66.46;98463.34;10434775;28;20500;-61
2024/02/08 08:50:19;;;;;;;3.90;2.15;;;;;;;4.70;66.28;98452.41;10415839;28;20053;-61
2024/02/08 08:55:22;;;;;;;4.63;2.08;;;;;;;4.81;66.50;98446.59;10432780;28;20048;-60
2024/02/08 09:01:11;;;;;;;4.45;2.47;;;;;;;4.80;66.59;98451.88;10431819;28;20045;-61
2024/02/08 09:05:50;;;;;;;5.10;2.10;;;;;;;4.84;66.62;98443.00;10421661;28;20052;-60
2024/02/08 09:10:56;;;;;;;3.38;1.88;;;;;;;4.75;66.31;98440.94;10433232;28;20119;-61
2024/02/08 09:16:29;;;;;;;3.80;2.08;;;;;;;4.77;66.18;98439.09;10432489;28;20049;-61
2024/02/08 09:21:25;;;;;;;4.03;2.05;;;;;;;4.95;66.22;98427.63;10432282;28;20053;-61
2024/02/08 09:26:46;;;;;;;3.40;1.83;;;;;;;5.05;65.95;98433.91;10433028;28;20083;-61
2024/02/08 09:31:48;;;;;;;4.22;2.33;;;;;;;5.02;65.91;98423.75;10432702;28;20033;-61
2024/02/08 09:36:50;;;;;;;5.18;2.47;;;;;;;4.94;66.08;98425.97;10433006;28;20041;-61
2024/02/08 09:41:52;;;;;;;3.13;1.50;;;;;;;5.04;66.25;98424.50;10431956;28;20053;-61
2024/02/08 09:46:56;;;;;;;3.50;2.10;;;;;;;5.13;65.91;98422.16;10432630;28;20454;-61
2024/02/08 09:52:14;;;;;;;3.40;1.90;;;;;;;5.17;65.86;98405.50;10430778;28;20455;-61
2024/02/08 09:57:23;;;;;;;2.72;1.67;;;;;;;5.11;66.17;98399.84;10432322;28;20044;-61
2024/02/08 10:02:37;;;;;;;3.63;1.88;;;;;;;4.98;66.40;98392.03;10431298;28;20390;-61
2024/02/08 10:07:49;;;;;;;3.85;1.70;;;;;;;5.08;66.60;98376.75;10432297;28;20220;-61
2024/02/08 10:13:04;;;;;;;3.28;1.60;;;;;;;5.02;66.21;98375.38;10432186;28;20500;-60
2024/02/08 10:18:10;;;;;;;3.38;1.65;;;;;;;4.76;66.73;98370.13;10431599;28;20037;-61
2024/02/08 10:23:35;;;;;;;3.95;1.45;;;;;;;4.82;67.13;98367.16;10431670;28;20115;-61
2024/02/08 10:28:37;;;;;;;4.13;1.50;;;;;;;4.90;66.88;98362.34;10433464;28;20059;-61
2024/02/08 10:33:47;;;;;;;3.33;1.50;;;;;;;5.04;66.96;98344.19;10439462;28;20056;-60
2024/02/08 10:38:56;;;;;;;2.40;1.40;;;;;;;5.04;67.03;98333.81;10420991;28;20449;-61
2024/02/08 10:44:04;;;;;;;3.20;1.60;;;;;;;5.17;66.66;98324.31;10435429;28;21125;-61
2024/02/08 10:49:11;;;;;;;3.00;1.67;;;;;;;5.03;67.20;98314.84;10437833;28;20077;-61
2024/02/08 10:54:16;;;;;;;2.92;1.80;;;;;;;5.06;67.02;98298.28;10437581;28;20472;-61
2024/02/08 10:59:39;;;;;;;3.53;1.83;;;;;;;5.22;66.74;98281.66;10437979;28;20998;-61
2024/02/08 11:04:41;;;;;;;3.08;1.55;;;;;;;5.16;66.99;98279.47;10437738;28;20043;-61
2024/02/08 11:09:44;;;;;;;1.75;1.38;;;;;;;5.21;66.83;98264.44;10436354;28;20080;-61
2024/02/08 11:14:56;;;;;;;2.20;1.52;;;;;;;5.17;67.18;98246.59;10437686;28;20040;-61
2024/02/08 11:20:03;;;;;;;2.95;1.70;;;;;;;5.34;66.86;98230.78;10436836;28;20053;-60
2024/02/08 11:25:36;;;;;;;2.42;1.55;;;;;;;5.51;66.47;98223.53;10436395;28;20572;-60
2024/02/08 11:30:40;;;;;;;2.45;1.50;;;;;;;5.43;66.55;98209.44;10434814;28;20053;-61
2024/02/08 11:35:54;;;;;;;2.42;1.50;;;;;;;5.55;66.71;98198.25;10437192;28;20045;-61
2024/02/08 11:41:09;;;;;;;2.55;1.55;;;;;;;5.70;66.48;98199.81;10435920;28;20060;-61
2024/02/08 11:46:18;;;;;;;2.30;1.50;;;;;;;5.73;66.38;98178.03;10436727;28;20116;-61
2024/02/08 11:51:22;;;;;;;1.70;1.17;;;;;;;5.68;66.19;98173.16;10434953;28;21221;-61
2024/02/08 11:56:29;;;;;;;1.90;1.00;;;;;;;5.75;66.53;98165.78;10435678;28;20504;-61
2024/02/08 12:01:32;;;;;;;1.27;0.95;;;;;;;5.80;66.11;98153.34;10435413;28;20055;-60
2024/02/08 12:06:34;;;;;;;1.67;1.13;;;;;;;5.79;66.37;98144.72;10435429;28;20541;-61
2024/02/08 12:11:37;;;;;;;1.95;1.30;;;;;;;5.83;66.36;98142.75;10430334;28;20052;-60
2024/02/08 12:16:46;;;;;;;2.05;1.20;;;;;;;6.06;66.63;98129.81;10434280;28;20045;-61
2024/02/08 12:21:56;;;;;;;1.37;1.07;;;;;;;6.10;66.07;98126.06;10434790;28;20084;-60
2024/02/08 12:27:13;;;;;;;1.45;0.85;;;;;;;5.98;66.46;98110.56;10433915;28;20048;-60
2024/02/08 12:32:18;;;;;;;1.70;1.10;;;;;;;5.98;66.63;98111.38;10431214;28;20053;-61
2024/02/08 12:37:29;;;;;;;1.83;1.10;;;;;;;6.01;66.41;98110.34;10426443;28;20107;-60
2024/02/08 12:42:34;;;;;;;1.70;1.30;;;;;;;6.08;66.41;98114.19;10431538;28;20052;-61
2024/02/08 12:47:39;;;;;;;1.45;1.00;;;;;;;6.02;66.47;98101.63;10431054;28;20041;-61
2024/02/08 12:52:41;;;;;;;1.77;1.25;;;;;;;6.07;66.79;98104.72;10430522;28;20053;-61
2024/02/08 12:57:57;;;;;;;1.13;1.00;;;;;;;6.16;66.61;98097.13;10411397;28;20095;-60
2024/02/08 13:03:05;;;;;;;2.00;1.33;;;;;;;6.33;66.04;98078.59;10430772;28;20187;-61
2024/02/08 13:08:09;;;;;;;2.22;1.20;;;;;;;6.16;66.08;98078.97;10432622;28;20037;-60
2024/02/08 13:13:11;;;;;;;2.75;1.30;;;;;;;6.28;65.89;98054.75;10429782;28;20048;-60
2024/02/08 13:18:17;;;;;;;2.40;1.20;;;;;;;6.21;66.29;98056.09;10431689;28;20045;-60
2024/02/08 13:23:20;;;;;;;2.50;1.30;;;;;;;6.16;66.19;98053.00;10432038;28;20048;-60
2024/02/08 13:28:24;;;;;;;2.35;1.42;;;;;;;6.14;66.30;98043.66;10428090;28;20049;-60
2024/02/08 13:33:28;;;;;;;4.45;1.80;;;;;;;6.23;66.63;98038.63;10429213;28;20045;-60
2024/02/08 13:38:30;;;;;;;2.75;1.42;;;;;;;6.54;66.18;98028.66;10427773;28;20045;-61
2024/02/08 13:43:32;;;;;;;2.47;1.20;;;;;;;6.62;65.63;98028.91;10427212;28;20539;-61
2024/02/08 13:48:35;;;;;;;2.05;1.30;;;;;;;6.67;65.18;98024.22;10427098;28;20131;-61
2024/02/08 13:53:37;;;;;;;2.33;1.40;;;;;;;6.61;65.20;98020.31;10432104;28;20136;-60
2024/02/08 13:58:40;;;;;;;2.90;1.45;;;;;;;6.69;65.32;98012.78;10431523;28;20428;-60
2024/02/08 14:03:45;;;;;;;2.42;1.58;;;;;;;6.83;65.50;97996.16;10437052;28;20106;-60
2024/02/08 14:08:53;;;;;;;3.10;1.73;;;;;;;6.79;64.98;97997.31;10437164;28;20040;-60
2024/02/08 14:13:56;;;;;;;2.10;1.38;;;;;;;6.86;65.27;97990.72;10438821;28;20280;-60
2024/02/08 14:18:59;;;;;;;2.70;1.55;;;;;;;7.02;65.09;97980.84;10438879;28;20059;-60
2024/02/08 14:24:02;;;;;;;4.40;1.90;;;;;;;7.22;65.04;97977.53;10438108;28;20065;-60
2024/02/08 14:29:05;;;;;;;2.58;1.65;;;;;;;7.41;64.79;97959.53;10438214;28;20527;-61
2024/02/08 14:34:08;;;;;;;2.15;1.40;;;;;;;7.34;64.25;97945.38;10431564;28;20059;-60
2024/02/08 14:39:26;;;;;;;2.78;1.65;;;;;;;7.11;64.56;97944.56;10432820;28;20477;-61
2024/02/08 14:44:41;;;;;;;2.33;1.63;;;;;;;7.00;64.78;97933.31;10434053;28;20045;-61
2024/02/08 14:49:58;;;;;;;1.75;1.40;;;;;;;6.88;65.26;97932.50;10425811;28;20187;-61
2024/02/08 14:55:10;;;;;;;2.80;1.40;;;;;;;6.79;65.46;97916.78;10429298;28;20041;-60
2024/02/08 15:05:46;;;;;;;2.50;1.58;;;;;;;6.68;65.66;97904.59;10432891;28;20095;-61
2024/02/08 15:11:09;;;;;;;2.67;1.70;;;;;;;6.64;65.80;97899.75;10431496;28;20047;-60
2024/02/08 15:16:21;;;;;;;4.20;2.28;;;;;;;6.62;66.04;97897.28;10431359;28;20480;-61
2024/02/08 15:21:24;;;;;;;3.70;1.90;;;;;;;6.62;66.38;97883.47;10431269;28;20384;-61
2024/02/08 15:26:37;;;;;;;3.78;1.90;;;;;;;6.75;66.06;97889.38;10431738;28;20056;-60
2024/02/08 15:31:39;;;;;;;3.92;2.10;;;;;;;6.68;66.07;97877.78;10433051;28;20048;-60
2024/02/08 15:36:50;;;;;;;3.97;2.22;;;;;;;6.63;66.27;97869.53;10428515;28;20131;-61
2024/02/08 15:41:55;;;;;;;4.32;2.20;;;;;;;6.61;66.62;97861.88;10431760;28;20135;-60
2024/02/08 15:46:57;;;;;;;3.20;1.95;;;;;;;6.60;66.69;97859.38;10430608;28;20076;-60
2024/02/08 15:51:59;;;;;;;3.88;2.38;;;;;;;6.55;67.04;97853.72;10428866;28;20053;-60
2024/02/08 15:57:07;;;;;;;4.13;2.00;;;;;;;6.58;66.86;97845.69;10429283;28;20140;-60
2024/02/08 16:02:13;;;;;;;3.28;1.92;;;;;;;6.65;66.94;97842.53;10430660;28;20040;-60
2024/02/08 16:07:27;;;;;;;2.47;1.73;;;;;;;6.64;66.75;97845.22;10425026;28;20107;-60
2024/02/08 16:22:52;;;;;;;4.75;2.78;;;;;;;6.64;67.31;97827.03;10430527;28;20053;-61
2024/02/08 16:28:02;;;;;;;8.10;4.60;;;;;;;6.48;67.68;97823.97;10430537;28;20049;-61
2024/02/08 16:33:10;;;;;;;7.88;3.55;;;;;;;6.60;67.40;97818.66;10430128;28;20068;-60
2024/02/08 16:38:16;;;;;;;6.30;3.45;;;;;;;6.64;67.31;97811.44;10430404;28;20048;-61
2024/02/08 16:43:43;;;;;;;6.15;2.83;;;;;;;6.59;67.40;97803.19;10432849;28;20056;-60
2024/02/08 16:48:47;;;;;;;5.72;3.17;;;;;;;6.59;67.52;97805.81;10431320;28;20064;-60
2024/02/08 16:53:59;;;;;;;8.13;2.80;;;;;;;6.60;67.34;97805.66;10430067;28;20049;-60
2024/02/08 16:59:09;;;;;;;4.18;2.30;;;;;;;6.53;67.52;97795.88;10425625;28;20124;-60
2024/02/08 17:19:46;;;;;;;6.32;2.58;;;;;;;6.84;67.23;97800.31;10431215;28;20139;-60
2024/02/08 17:25:19;;;;;;;;;;;;;;;6.78;67.91;97790.41;10428097;28;20044;-60
2024/02/08 17:30:51;;;;;;;4.47;2.85;;;;;;;6.70;67.83;97785.00;10429309;28;20031;-60
2024/02/08 17:35:55;;;;;;;5.55;2.42;;;;;;;6.82;67.99;97782.28;10415562;28;20049;-60
2024/02/08 17:40:59;;;;;;;4.57;2.63;;;;;;;6.94;67.93;97781.31;10438733;28;20057;-60
2024/02/08 17:46:04;;;;;;;8.38;2.35;;;;;;;7.18;68.28;97776.75;10435786;28;20041;-60
2024/02/08 17:51:11;;;;;;;4.90;2.60;;;;;;;7.55;69.44;97773.81;10438112;28;20663;-60
2024/02/08 17:56:18;;;;;;;4.63;2.38;;;;;;;7.93;69.77;97776.69;10434953;28;20041;-60
2024/02/08 18:01:31;;;;;;;5.60;2.20;;;;;;;8.34;70.18;97770.63;10438331;28;20056;-60
2024/02/08 18:06:36;;;;;;;7.45;3.25;;;;;;;8.56;70.58;97767.84;10432613;28;20049;-60
2024/02/08 18:11:41;;;;;;;9.00;2.50;;;;;;;8.84;71.57;97762.72;10436956;28;20067;-60
2024/02/08 18:16:44;;;;;;;5.25;2.15;;;;;;;9.13;70.59;97769.78;10436075;28;20052;-60
2024/02/08 18:21:47;;;;;;;3.35;1.70;;;;;;;9.31;70.60;97766.38;10435183;28;20542;-60
2024/02/08 18:26:50;;;;;;;5.88;2.35;;;;;;;9.50;70.66;97752.53;10438485;28;20048;-60
2024/02/08 18:31:52;;;;;;;8.60;1.98;;;;;;;9.69;70.46;97756.94;10435565;28;20115;-60
2024/02/08 18:36:56;;;;;;;10.20;2.63;;;;;;;9.77;70.31;97751.84;10433945;28;20049;-60
2024/02/08 18:42:01;;;;;;;3.13;1.77;;;;;;;9.89;70.49;97748.94;10432789;28;21871;-60
2024/02/08 18:47:07;;;;;;;8.50;2.85;;;;;;;10.02;69.93;97746.03;10430854;28;20081;-60
2024/02/08 18:52:12;;;;;;;4.88;2.90;;;;;;;10.04;70.09;97751.94;10436819;28;20052;-60
2024/02/08 18:57:16;;;;;;;5.72;2.28;;;;;;;10.17;69.72;97742.00;10435786;28;20052;-60
2024/02/08 19:02:27;;;;;;;4.50;1.77;;;;;;;10.20;69.74;97733.88;10428651;28;20084;-60
2024/02/08 19:07:32;;;;;;;10.65;2.13;;;;;;;10.23;69.54;97741.44;10432114;28;20088;-60
2024/02/08 19:12:36;;;;;;;5.85;1.58;;;;;;;10.21;69.41;97728.53;10431895;28;20500;-60
2024/02/08 19:17:40;;;;;;;3.45;1.77;;;;;;;10.23;69.46;97739.66;10433460;28;20071;-60
2024/02/08 19:22:56;;;;;;;8.40;2.83;;;;;;;10.35;69.23;97735.06;10435528;28;20895;-60
2024/02/08 19:27:59;;;;;;;5.05;2.10;;;;;;;10.42;69.12;97736.13;10435893;28;20057;-60
2024/02/08 19:33:04;;;;;;;4.18;1.90;;;;;;;10.31;69.63;97729.31;10436520;28;20060;-60
2024/02/08 19:38:08;;;;;;;9.20;2.53;;;;;;;10.41;69.36;97730.09;10431942;28;20045;-60
2024/02/08 19:43:10;;;;;;;8.00;2.60;;;;;;;10.40;69.15;97727.59;10427903;28;20053;-60
2024/02/08 19:48:24;;;;;;;6.97;2.40;;;;;;;10.46;69.21;97734.91;10428634;28;20560;-60
2024/02/08 19:53:30;;;;;;;9.68;2.08;;;;;;;10.38;69.37;97719.09;10425748;28;20142;-60
2024/02/08 19:58:33;;;;;;;6.57;2.45;;;;;;;10.33;69.44;97722.16;10421196;28;20041;-60
2024/02/08 20:03:36;;;;;;;10.18;2.78;;;;;;;10.25;69.49;97716.00;10418410;28;20056;-60
2024/02/08 20:08:44;;;;;;;9.02;2.38;;;;;;;10.23;69.21;97712.72;10423001;28;20041;-60
2024/02/08 20:13:47;;;;;;;6.05;2.03;;;;;;;10.32;69.11;97715.28;10425100;28;20056;-60
2024/02/08 20:18:51;;;;;;;6.18;2.90;;;;;;;10.37;68.78;97710.47;10425122;28;20040;-60
2024/02/08 20:23:54;;;;;;;8.88;2.63;;;;;;;10.37;68.60;97707.84;10433343;28;20037;-60
2024/02/08 20:28:57;;;;;;;11.75;3.15;;;;;;;10.34;68.83;97707.28;10428285;28;20051;-60
2024/02/08 20:34:00;;;;;;;16.20;3.03;;;;;;;10.39;68.65;97695.47;10430610;28;20051;-60
2024/02/08 20:39:10;;;;;;;9.50;2.30;;;;;;;10.37;68.63;97686.94;10427497;28;20033;-61
2024/02/08 20:44:15;;;;;;;13.05;2.50;;;;;;;10.35;68.64;97672.38;10430210;28;20761;-60
2024/02/08 20:49:20;;;;;;;8.77;2.63;;;;;;;10.25;68.69;97671.59;10430088;28;20072;-59
2024/02/08 20:54:24;;;;;;;8.45;2.22;;;;;;;10.26;68.69;97679.28;10430793;28;20056;-60
2024/02/08 20:59:27;;;;;;;5.10;2.60;;;;;;;10.13;68.86;97672.75;10427663;28;20041;-60
2024/02/08 21:04:30;;;;;;;8.30;3.15;;;;;;;10.25;68.47;97674.19;10429246;28;20512;-60
2024/02/08 21:09:32;;;;;;;11.32;1.92;;;;;;;10.28;68.07;97671.28;10428189;28;20053;-60
2024/02/08 21:14:34;;;;;;;11.05;2.38;;;;;;;10.17;67.94;97653.19;10411021;28;20523;-61
2024/02/08 21:19:42;;;;;;;5.78;2.30;;;;;;;10.25;67.60;97646.28;10421474;28;20067;-60
2024/02/08 21:24:45;;;;;;;4.47;2.10;;;;;;;10.34;67.26;97647.19;10427746;28;20167;-60
2024/02/08 21:29:49;;;;;;;6.50;2.25;;;;;;;10.33;67.05;97651.63;10429684;28;20041;-60
2024/02/08 21:34:51;;;;;;;7.03;2.30;;;;;;;10.36;66.72;97638.25;10428245;28;20053;-60
2024/02/08 21:39:56;;;;;;;7.65;2.10;;;;;;;10.39;66.47;97642.38;10426259;28;20612;-60
2024/02/08 21:44:59;;;;;;;8.60;2.63;;;;;;;10.39;66.54;97640.59;10427770;28;20508;-60
2024/02/08 21:50:06;;;;;;;13.57;3.20;;;;;;;10.34;66.57;97629.72;10429257;28;20049;-60
2024/02/08 21:55:09;;;;;;;10.02;2.67;;;;;;;10.31;66.53;97634.44;10429054;28;20053;-60
2024/02/08 22:00:12;;;;;;;8.15;2.63;;;;;;;10.31;66.64;97634.44;10428974;28;20045;-60
2024/02/08 22:05:18;;;;;;;11.43;3.08;;;;;;;10.30;66.83;97625.78;10428570;28;20362;-60
2024/02/08 22:10:20;;;;;;;10.70;2.42;;;;;;;10.27;66.87;97612.19;10428457;28;20226;-60
2024/02/08 22:15:23;;;;;;;10.75;1.98;;;;;;;10.30;66.77;97607.47;10428786;28;20049;-60
2024/02/08 22:20:25;;;;;;;11.65;3.13;;;;;;;10.37;66.45;97608.56;10428007;28;20124;-60
2024/02/08 22:25:28;;;;;;;10.10;2.33;;;;;;;10.44;66.52;97604.38;10435773;28;20113;-60
2024/02/08 22:30:31;;;;;;;6.18;2.10;;;;;;;10.51;66.20;97594.16;10436831;28;20045;-60
2024/02/08 22:35:35;;;;;;;6.15;2.03;;;;;;;10.47;66.16;97592.81;10437464;28;20068;-60
2024/02/08 22:40:38;;;;;;;6.65;2.45;;;;;;;10.42;66.41;97595.03;10436492;28;20049;-60
2024/02/08 22:45:40;;;;;;;9.30;2.33;;;;;;;10.41;66.33;97594.22;10435987;28;20044;-60
2024/02/08 22:50:46;;;;;;;7.78;3.05;;;;;;;10.46;66.51;97589.38;10436452;28;20084;-60
2024/02/08 22:55:50;;;;;;;9.50;3.58;;;;;;;10.47;66.24;97582.34;10434717;28;20052;-60
2024/02/08 23:01:00;;;;;;;8.23;3.17;;;;;;;10.36;66.30;97575.53;10435000;28;20057;-60
2024/02/08 23:06:05;;;;;;;13.75;3.78;;;;;;;10.26;66.52;97561.72;10432556;28;20048;-60
2024/02/08 23:11:09;;;;;;;7.95;3.55;;;;;;;10.22;66.71;97560.38;10433449;28;20583;-60
2024/02/08 23:16:11;;;;;;;7.60;2.83;;;;;;;10.24;66.58;97545.38;10435281;28;20049;-61
2024/02/08 23:21:24;;;;;;;8.10;1.98;;;;;;;10.18;66.34;97535.50;10435714;28;20081;-60
2024/02/08 23:26:27;;;;;;;6.30;2.53;;;;;;;10.06;66.81;97530.63;10435071;28;20055;-60
2024/02/08 23:31:31;;;;;;;10.48;2.85;;;;;;;10.04;66.78;97522.13;10435452;28;20041;-60
2024/02/08 23:36:34;;;;;;;4.68;2.58;;;;;;;9.92;67.00;97513.69;10433943;28;20179;-60
2024/02/08 23:41:36;;;;;;;4.82;2.38;;;;;;;9.80;67.40;97514.03;10430915;28;20041;-60
2024/02/08 23:46:40;;;;;;;4.30;2.30;;;;;;;9.81;67.64;97519.09;10432242;28;20390;-60
2024/02/08 23:51:42;;;;;;;5.22;2.40;;;;;;;9.85;67.59;97506.59;10434004;28;20048;-60
2024/02/08 23:56:44;;;;;;;12.48;2.05;;;;;;;9.94;67.24;97505.69;10433304;28;20049;-60
